createdAt,value
2019-06-07T00:01:23.883Z,71.20
2019-06-07T00:03:54.003Z,71.30
2019-06-07T00:06:25.799Z,71.10
2019-06-07T00:08:57.010Z,71.30
2019-06-07T00:11:26.783Z,71.30
2019-06-07T00:13:56.880Z,72.10
2019-06-07T00:16:26.958Z,71.60
2019-06-07T00:18:57.036Z,71.90
2019-06-07T00:22:12.891Z,72.20
2019-06-07T00:23:58.472Z,72.20
2019-06-07T00:26:28.381Z,72.20
2019-06-07T00:28:58.941Z,71.90
2019-06-07T00:31:29.060Z,71.90
2019-06-07T00:33:59.059Z,71.90
2019-06-07T00:36:28.789Z,72.00
2019-06-07T00:38:58.604Z,72.00
2019-06-07T00:41:28.391Z,71.80
2019-06-07T00:43:58.190Z,72.10
2019-06-07T00:46:28.095Z,72.10
2019-06-07T00:48:57.931Z,72.00
2019-06-07T00:51:27.766Z,72.30
2019-06-07T00:53:58.187Z,72.50
2019-06-07T00:56:27.983Z,72.80
2019-06-07T00:59:10.688Z,72.70
2019-06-07T01:01:29.704Z,72.70
2019-06-07T01:04:00.246Z,72.80
2019-06-07T01:06:30.293Z,73.00
2019-06-07T01:09:00.143Z,73.40
2019-06-07T01:11:29.986Z,73.80
2019-06-07T01:14:00.117Z,73.70
2019-06-07T01:16:54.672Z,73.80
2019-06-07T01:19:01.224Z,73.90
2019-06-07T01:21:31.082Z,73.80
2019-06-07T01:24:11.365Z,74.00
2019-06-07T01:26:33.024Z,74.20
2019-06-07T01:29:03.755Z,74.30
2019-06-07T01:31:33.833Z,74.50
2019-06-07T01:34:04.274Z,74.40
2019-06-07T01:36:34.319Z,74.40
2019-06-07T01:39:06.965Z,74.50
2019-06-07T01:41:37.052Z,74.40
2019-06-07T01:44:07.895Z,74.50
2019-06-07T01:46:38.152Z,74.30
2019-06-07T01:49:08.440Z,74.40
2019-06-07T01:51:38.628Z,74.50
2019-06-07T01:56:41.359Z,74.40
2019-06-07T01:59:12.070Z,74.40
2019-06-07T02:01:42.174Z,74.40
2019-06-07T02:04:12.872Z,74.50
2019-06-07T02:06:43.915Z,74.70
2019-06-07T02:09:14.315Z,74.70
2019-06-07T02:11:44.469Z,74.60
2019-06-07T02:14:14.374Z,74.90
2019-06-07T02:16:44.869Z,75.10
2019-06-07T02:19:14.984Z,75.10
2019-06-07T02:21:45.061Z,75.00
2019-06-07T02:24:14.808Z,75.00
2019-06-07T02:26:45.092Z,75.10
2019-06-07T02:29:14.871Z,75.20
2019-06-07T02:31:45.372Z,75.30
2019-06-07T02:34:16.062Z,75.40
2019-06-07T02:36:49.469Z,75.60
2019-06-07T02:39:19.613Z,75.90
2019-06-07T02:41:49.526Z,75.80
2019-06-07T02:44:19.289Z,75.60
2019-06-07T02:46:49.937Z,75.60
2019-06-07T02:49:20.358Z,75.70
2019-06-07T02:51:50.299Z,76.00
2019-06-07T02:54:20.174Z,76.20
2019-06-07T02:56:57.960Z,76.30
2019-06-07T02:59:47.322Z,76.50
2019-06-07T03:01:53.651Z,76.70
2019-06-07T03:04:28.557Z,76.70
2019-06-07T03:06:57.667Z,76.80
2019-06-07T03:09:33.910Z,76.90
2019-06-07T03:12:03.592Z,77.00
2019-06-07T03:14:36.551Z,77.00
2019-06-07T03:17:08.237Z,76.90
2019-06-07T03:19:41.836Z,77.00
2019-06-07T03:22:11.943Z,77.00
2019-06-07T03:24:44.966Z,77.00
2019-06-07T03:27:35.064Z,77.20
2019-06-07T03:29:48.120Z,77.20
2019-06-07T03:32:18.039Z,77.30
2019-06-07T03:34:48.381Z,77.30
2019-06-07T03:37:18.152Z,77.40
2019-06-07T03:39:49.570Z,77.50
2019-06-07T03:42:19.414Z,78.30
2019-06-07T03:47:41.386Z,77.70
2019-06-07T03:50:15.367Z,77.80
2019-06-07T03:52:46.803Z,77.90
2019-06-07T03:55:17.203Z,77.90
2019-06-07T03:58:29.897Z,77.80
2019-06-07T04:00:18.687Z,77.90
2019-06-07T04:02:48.868Z,77.90
2019-06-07T04:05:18.593Z,78.10
2019-06-07T04:07:48.730Z,78.10
2019-06-07T04:10:19.406Z,78.20
2019-06-07T04:12:50.508Z,78.10
2019-06-07T04:15:20.204Z,78.30
2019-06-07T04:18:01.400Z,78.20
2019-06-07T04:20:21.508Z,78.30
2019-06-07T04:22:51.567Z,78.30
2019-06-07T04:25:21.411Z,78.30
2019-06-07T04:27:51.749Z,78.30
2019-06-07T04:30:25.044Z,78.20
2019-06-07T04:32:54.768Z,78.10
2019-06-07T04:35:26.797Z,77.90
2019-06-07T04:37:56.857Z,77.80
2019-06-07T04:40:27.904Z,77.70
2019-06-07T04:42:59.650Z,77.80
2019-06-07T04:45:37.347Z,77.80
2019-06-07T04:48:04.887Z,77.80
2019-06-07T04:50:38.288Z,77.80
2019-06-07T04:53:09.319Z,77.80
2019-06-07T04:55:41.372Z,78.20
2019-06-07T04:58:12.248Z,79.30
2019-06-07T05:00:58.427Z,80.40
2019-06-07T05:03:14.701Z,80.40
2019-06-07T05:05:44.691Z,80.20
2019-06-07T05:08:27.524Z,81.40
2019-06-07T05:10:47.114Z,83.10
2019-06-07T05:13:17.669Z,85.20
2019-06-07T05:15:48.233Z,85.20
2019-06-07T05:18:18.151Z,83.90
2019-06-07T05:20:49.031Z,81.90
2019-06-07T05:24:04.917Z,81.40
2019-06-07T05:25:55.423Z,79.70
2019-06-07T05:28:25.687Z,78.60
2019-06-07T05:31:04.547Z,78.30
2019-06-07T05:33:27.790Z,76.90
2019-06-07T05:35:57.761Z,75.40
2019-06-07T05:38:27.609Z,71.60
2019-06-07T05:40:58.308Z,68.80
2019-06-07T05:43:34.313Z,71.60
2019-06-07T05:46:02.141Z,70.90
2019-06-07T05:48:32.182Z,67.50
2019-06-07T05:51:02.182Z,64.40
2019-06-07T05:53:32.886Z,64.90
2019-06-07T05:56:04.128Z,67.00
2019-06-07T05:58:35.158Z,65.70
2019-06-07T06:01:41.711Z,65.20
2019-06-07T06:03:38.034Z,61.50
2019-06-07T06:06:08.755Z,59.20
2019-06-07T06:08:40.087Z,58.20
2019-06-07T06:11:11.434Z,58.20
2019-06-07T06:14:01.521Z,58.40
2019-06-07T06:16:13.868Z,58.70
2019-06-07T06:18:47.204Z,60.60
2019-06-07T06:21:19.764Z,63.00
2019-06-07T06:23:50.737Z,61.60
2019-06-07T06:26:18.569Z,61.40
2019-06-07T06:28:49.639Z,58.90
2019-06-07T06:31:20.190Z,59.10
2019-06-07T06:33:50.334Z,60.00
2019-06-07T06:36:21.000Z,60.10
2019-06-07T06:38:51.667Z,61.30
2019-06-07T06:41:21.661Z,63.10
2019-06-07T06:43:52.647Z,63.40
2019-06-07T06:46:38.197Z,60.60
2019-06-07T06:48:55.966Z,59.90
2019-06-07T06:51:25.828Z,60.00
2019-06-07T06:53:56.696Z,60.70
2019-06-07T06:56:26.951Z,60.10
2019-06-07T07:08:10.947Z,62.10
2019-06-07T07:11:28.848Z,61.70
2019-06-07T07:13:54.211Z,62.20
2019-06-07T07:16:20.931Z,61.20
2019-06-07T07:18:53.123Z,60.70
2019-06-07T07:21:22.188Z,60.00
2019-06-07T07:24:19.508Z,61.60
2019-06-07T07:26:23.759Z,62.70
2019-06-07T07:28:57.262Z,61.90
2019-06-07T07:31:25.164Z,62.20
2019-06-07T07:36:38.646Z,62.90
2019-06-07T07:39:04.525Z,59.60
2019-06-07T07:41:29.872Z,58.70
2019-06-07T07:44:06.588Z,58.30
2019-06-07T07:46:32.662Z,59.20
2019-06-07T07:49:02.444Z,57.90
2019-06-07T07:51:32.975Z,57.70
2019-06-07T07:54:10.776Z,56.70
2019-06-07T07:56:34.265Z,56.20
2019-06-07T07:59:19.244Z,57.10
2019-06-07T08:01:52.595Z,57.70
2019-06-07T08:04:39.831Z,56.60
2019-06-07T08:06:55.991Z,56.70
2019-06-07T08:09:25.864Z,58.30
2019-06-07T08:12:00.245Z,55.30
2019-06-07T08:14:31.602Z,54.50
2019-06-07T08:17:01.694Z,52.80
2019-06-07T08:19:31.362Z,54.30
2019-06-07T08:22:07.278Z,55.20
2019-06-07T08:24:37.238Z,54.10
2019-06-07T08:27:25.454Z,53.70
2019-06-07T08:29:45.084Z,54.00
2019-06-07T08:32:10.070Z,50.40
2019-06-07T08:34:39.981Z,50.90
2019-06-07T08:37:09.663Z,50.10
2019-06-07T08:39:39.862Z,50.10
2019-06-07T08:42:17.905Z,49.40
2019-06-07T08:44:42.410Z,49.50
2019-06-07T08:47:20.190Z,48.70
2019-06-07T08:49:44.110Z,48.60
2019-06-07T08:52:15.443Z,49.10
2019-06-07T08:54:45.626Z,48.90
2019-06-07T08:57:22.085Z,49.40
2019-06-07T08:59:59.870Z,47.80
2019-06-07T09:02:27.405Z,43.00
2019-06-07T09:05:03.187Z,45.00
2019-06-07T09:07:28.399Z,43.80
2019-06-07T09:10:09.564Z,40.60
2019-06-07T09:12:32.960Z,41.30
2019-06-07T09:15:14.811Z,38.30
2019-06-07T09:17:34.498Z,39.80
2019-06-07T09:20:32.668Z,36.70
2019-06-07T09:22:38.942Z,36.80
2019-06-07T09:25:20.101Z,36.40
2019-06-07T09:27:41.071Z,40.60
2019-06-07T09:30:18.172Z,41.50
2019-06-07T09:32:47.393Z,37.20
2019-06-07T09:35:17.897Z,38.20
2019-06-07T09:38:07.328Z,37.70
2019-06-07T09:40:27.573Z,35.90
2019-06-07T09:43:38.393Z,35.50
2019-06-07T09:45:25.314Z,33.00
2019-06-07T09:47:58.574Z,33.30
2019-06-07T09:50:27.550Z,34.00
2019-06-07T09:53:07.391Z,32.30
2019-06-07T09:55:29.083Z,30.80
2019-06-07T09:58:09.061Z,32.40
2019-06-07T10:00:40.529Z,30.20
2019-06-07T10:03:13.677Z,30.90
2019-06-07T10:05:33.790Z,30.30
2019-06-07T10:08:16.146Z,32.10
2019-06-07T10:13:06.499Z,28.50
2019-06-07T10:15:36.427Z,28.50
2019-06-07T10:18:07.045Z,30.10
2019-06-07T10:20:36.983Z,29.40
2019-06-07T10:23:07.989Z,28.90
2019-06-07T10:25:38.361Z,30.90
2019-06-07T10:28:08.335Z,31.80
2019-06-07T10:30:38.441Z,32.30
2019-06-07T10:33:10.388Z,32.80
2019-06-07T10:35:40.132Z,30.00
2019-06-07T10:38:10.712Z,30.10
2019-06-07T10:40:41.553Z,30.20
2019-06-07T10:43:14.425Z,28.20
2019-06-07T10:45:44.084Z,27.80
2019-06-07T10:48:14.265Z,29.50
2019-06-07T10:50:44.083Z,29.50
2019-06-07T10:53:15.322Z,28.10
2019-06-07T10:55:45.066Z,27.40
2019-06-07T10:58:14.773Z,28.00
2019-06-07T11:00:44.516Z,29.30
2019-06-07T11:03:14.638Z,28.80
2019-06-07T11:05:45.883Z,27.60
2019-06-07T11:08:16.130Z,27.90
2019-06-07T11:10:50.295Z,27.90
2019-06-07T11:13:20.473Z,28.00
2019-06-07T11:15:50.650Z,27.80
2019-06-07T11:18:20.433Z,27.80
2019-06-07T11:20:50.977Z,27.60
2019-06-07T11:23:22.001Z,26.50
2019-06-07T11:25:52.082Z,26.80
2019-06-07T11:28:22.158Z,27.00
2019-06-07T11:30:51.960Z,27.10
2019-06-07T11:33:22.443Z,26.90
2019-06-07T11:35:53.472Z,26.50
2019-06-07T11:38:23.438Z,26.90
2019-06-07T11:40:53.220Z,26.30
2019-06-07T11:43:25.343Z,26.10
2019-06-07T11:45:55.276Z,26.00
2019-06-07T11:48:26.001Z,27.00
2019-06-07T11:50:56.193Z,26.90
2019-06-07T11:53:26.742Z,27.10
2019-06-07T11:55:56.579Z,27.10
2019-06-07T11:58:26.932Z,27.70
2019-06-07T12:00:56.751Z,28.20
2019-06-07T12:03:26.416Z,27.60
2019-06-07T12:05:56.043Z,28.10
2019-06-07T12:08:25.782Z,27.90
2019-06-07T12:10:56.346Z,28.10
2019-06-07T12:13:27.026Z,27.10
2019-06-07T12:16:00.022Z,27.20
2019-06-07T12:18:30.270Z,27.40
2019-06-07T12:21:02.184Z,27.00
2019-06-07T12:23:32.052Z,26.90
2019-06-07T12:26:01.724Z,26.40
2019-06-07T12:28:33.475Z,26.10
2019-06-07T12:31:03.148Z,26.70
2019-06-07T12:33:33.023Z,27.40
2019-06-07T12:36:02.674Z,27.30
2019-06-07T12:38:35.316Z,26.60
2019-06-07T12:41:06.843Z,25.70
2019-06-07T12:43:38.408Z,25.90
2019-06-07T12:46:08.343Z,27.20
2019-06-07T12:48:38.140Z,27.90
2019-06-07T12:51:08.596Z,28.20
2019-06-07T12:53:38.285Z,31.10
2019-06-07T12:56:07.916Z,30.90
2019-06-07T12:58:40.337Z,31.60
2019-06-07T13:01:10.083Z,32.20
2019-06-07T13:03:42.920Z,33.40
2019-06-07T13:06:15.423Z,33.10
2019-06-07T13:08:46.431Z,34.20
2019-06-07T13:11:23.638Z,35.40
2019-06-07T13:13:48.115Z,35.70
2019-06-07T13:16:18.351Z,36.90
2019-06-07T13:18:48.450Z,37.10
2019-06-07T13:21:18.415Z,36.90
2019-06-07T13:23:49.464Z,37.50
2019-06-07T13:26:20.590Z,38.00
2019-06-07T13:28:50.972Z,38.30
2019-06-07T13:31:21.230Z,38.80
2019-06-07T13:33:52.687Z,39.10
2019-06-07T13:36:22.480Z,39.10
2019-06-07T13:38:54.899Z,39.30
2019-06-07T13:41:36.349Z,39.80
2019-06-07T13:43:56.772Z,39.90
2019-06-07T13:46:27.180Z,41.20
2019-06-07T13:48:57.718Z,41.30
2019-06-07T13:51:28.925Z,40.60
2019-06-07T13:53:59.500Z,40.80
2019-06-07T13:56:29.316Z,41.20
2019-06-07T13:58:59.215Z,41.30
2019-06-07T14:01:29.098Z,42.80
2019-06-07T14:04:00.645Z,42.40
2019-06-07T14:06:30.923Z,43.30
2019-06-07T14:09:00.639Z,43.40
2019-06-07T14:11:49.384Z,44.20
2019-06-07T14:14:04.023Z,44.40
2019-06-07T14:16:34.348Z,44.80
2019-06-07T14:19:06.671Z,44.70
2019-06-07T14:21:38.340Z,45.10
2019-06-07T14:24:08.732Z,45.30
2019-06-07T14:26:39.111Z,45.00
2019-06-07T14:29:08.865Z,45.40
2019-06-07T14:31:39.923Z,46.20
2019-06-07T14:34:10.003Z,46.30
2019-06-07T14:36:39.931Z,46.60
2019-06-07T14:39:09.664Z,47.00
2019-06-07T14:41:39.723Z,47.00
2019-06-07T14:44:09.409Z,47.50
2019-06-07T14:46:39.467Z,47.80
2019-06-07T14:49:09.423Z,48.10
2019-06-07T14:51:39.600Z,48.50
2019-06-07T14:54:09.426Z,48.40
2019-06-07T14:56:39.509Z,48.70
2019-06-07T14:59:10.474Z,48.90
2019-06-07T15:01:40.892Z,49.20
2019-06-07T15:04:11.595Z,49.70
2019-06-07T15:06:42.090Z,50.00
2019-06-07T15:09:12.072Z,50.00
2019-06-07T15:11:42.508Z,50.30
2019-06-07T15:14:14.474Z,50.80
2019-06-07T15:16:44.888Z,50.70
2019-06-07T15:19:14.960Z,51.20
2019-06-07T15:21:46.252Z,51.60
2019-06-07T15:24:16.054Z,51.60
2019-06-07T15:26:47.119Z,51.90
2019-06-07T15:29:17.213Z,52.10
2019-06-07T15:31:47.031Z,52.40
2019-06-07T15:34:17.009Z,52.40
2019-06-07T15:36:47.659Z,52.50
2019-06-07T15:39:17.525Z,52.80
2019-06-07T15:41:47.607Z,52.70
2019-06-07T15:44:20.870Z,52.80
2019-06-07T15:46:50.966Z,53.10
2019-06-07T15:49:21.087Z,53.40
2019-06-07T15:51:51.432Z,53.40
2019-06-07T15:54:21.514Z,54.00
2019-06-07T15:56:51.725Z,54.30
2019-06-07T15:59:22.029Z,54.40
2019-06-07T16:01:53.248Z,54.40
2019-06-07T16:04:23.118Z,54.60
2019-06-07T16:06:53.854Z,54.30
2019-06-07T16:09:23.911Z,54.30
2019-06-07T16:11:54.691Z,54.20
2019-06-07T16:14:24.397Z,54.40
2019-06-07T16:16:54.240Z,54.70
2019-06-07T16:19:24.064Z,55.00
2019-06-07T16:21:54.957Z,54.70
2019-06-07T16:24:24.914Z,54.90
2019-06-07T16:26:54.898Z,55.00
2019-06-07T16:29:24.601Z,55.20
2019-06-07T16:31:54.432Z,55.10
2019-06-07T16:34:24.413Z,55.20
2019-06-07T16:36:55.164Z,55.20
2019-06-07T16:39:25.697Z,55.40
2019-06-07T16:41:57.681Z,55.40
2019-06-07T16:44:27.489Z,55.50
2019-06-07T16:46:57.231Z,55.50
2019-06-07T16:49:27.704Z,55.60
2019-06-07T16:51:58.149Z,55.70
2019-06-07T16:54:30.160Z,55.90
2019-06-07T16:57:00.239Z,55.90
2019-06-07T16:59:31.938Z,55.70
2019-06-07T17:02:01.671Z,55.70
2019-06-07T17:04:31.794Z,55.70
2019-06-07T17:07:02.024Z,56.00
2019-06-07T17:09:32.926Z,56.30
2019-06-07T17:12:03.267Z,56.30
2019-06-07T17:14:33.128Z,56.20
2019-06-07T17:17:03.186Z,56.30
2019-06-07T17:19:34.886Z,56.30
2019-06-07T17:22:04.892Z,56.50
2019-06-07T17:24:34.960Z,56.70
2019-06-07T17:27:05.695Z,57.00
2019-06-07T17:29:35.712Z,57.20
2019-06-07T17:32:06.172Z,57.00
2019-06-07T17:34:36.091Z,56.90
2019-06-07T17:37:06.228Z,57.10
2019-06-07T17:39:36.416Z,57.20
2019-06-07T17:42:06.894Z,57.20
2019-06-07T17:44:36.811Z,57.20
2019-06-07T17:47:06.974Z,57.40
2019-06-07T17:49:37.371Z,57.50
2019-06-07T17:52:07.942Z,57.50
2019-06-07T17:54:38.429Z,57.50
2019-06-07T17:57:08.480Z,57.70
2019-06-07T17:59:38.485Z,57.80
2019-06-07T18:02:14.962Z,58.10
2019-06-07T18:04:40.316Z,58.10
2019-06-07T18:07:11.086Z,58.10
2019-06-07T18:09:41.593Z,58.00
2019-06-07T18:12:11.605Z,58.20
2019-06-07T18:14:42.307Z,58.20
2019-06-07T18:17:12.853Z,58.10
2019-06-07T18:19:43.117Z,58.20
2019-06-07T18:22:13.515Z,58.10
2019-06-07T18:24:43.606Z,58.10
2019-06-07T18:27:13.683Z,58.20
2019-06-07T18:29:44.618Z,58.20
2019-06-07T18:32:14.496Z,58.30
2019-06-07T18:34:44.572Z,58.50
2019-06-07T18:37:14.983Z,58.70
2019-06-07T18:39:47.043Z,58.80
2019-06-07T18:42:16.759Z,59.00
2019-06-07T18:44:46.919Z,59.20
2019-06-07T18:47:17.035Z,59.30
2019-06-07T18:49:47.543Z,59.30
2019-06-07T18:52:19.286Z,59.30
2019-06-07T18:54:50.698Z,59.50
2019-06-07T18:57:21.530Z,59.50
2019-06-07T18:59:52.432Z,59.50
2019-06-07T19:02:22.606Z,59.60
2019-06-07T19:04:56.337Z,59.70
2019-06-07T19:07:27.114Z,59.80
2019-06-07T19:09:57.182Z,59.80
2019-06-07T19:12:27.275Z,59.80
2019-06-07T19:14:57.752Z,59.90
2019-06-07T19:17:27.878Z,60.00
2019-06-07T19:19:58.347Z,60.30
2019-06-07T19:22:29.202Z,60.40
2019-06-07T19:25:00.475Z,60.60
2019-06-07T19:27:32.892Z,61.10
2019-06-07T19:30:02.508Z,61.30
2019-06-07T19:32:32.668Z,61.70
2019-06-07T19:35:03.382Z,61.90
2019-06-07T19:37:33.201Z,62.10
2019-06-07T19:40:04.569Z,62.30
2019-06-07T19:42:34.991Z,62.60
2019-06-07T19:47:39.494Z,63.10
2019-06-07T19:50:09.782Z,63.20
2019-06-07T19:52:39.921Z,63.20
2019-06-07T19:55:11.768Z,63.40
2019-06-07T19:57:43.799Z,63.60
2019-06-07T20:00:14.867Z,63.90
2019-06-07T20:02:44.600Z,63.90
2019-06-07T20:05:16.249Z,64.40
2019-06-07T20:07:46.096Z,64.70
2019-06-07T20:10:16.581Z,65.00
2019-06-07T20:12:46.832Z,65.30
2019-06-07T20:15:28.658Z,65.60
2019-06-07T20:17:50.792Z,65.80
2019-06-07T20:20:23.970Z,66.10
2019-06-07T20:22:54.318Z,66.30
2019-06-07T20:25:26.959Z,66.40
2019-06-07T20:27:57.201Z,66.60
2019-06-07T20:30:28.905Z,66.80
2019-06-07T20:33:01.736Z,66.80
2019-06-07T20:35:32.281Z,67.00
2019-06-07T20:38:04.008Z,67.10
2019-06-07T20:40:34.363Z,67.90
2019-06-07T20:43:06.069Z,68.00
2019-06-07T20:45:36.404Z,67.80
2019-06-07T20:48:08.316Z,68.40
2019-06-07T20:50:38.350Z,68.60
2019-06-07T20:53:09.194Z,68.90
2019-06-07T20:55:39.292Z,69.10
2019-06-07T20:58:09.515Z,69.20
2019-06-07T21:00:39.738Z,69.30
2019-06-07T21:03:09.790Z,69.40
2019-06-07T21:05:39.845Z,69.70
2019-06-07T21:08:12.783Z,70.00
2019-06-07T21:10:41.364Z,70.20
2019-06-07T21:13:11.559Z,70.60
2019-06-07T21:15:48.857Z,70.60
2019-06-07T21:21:04.641Z,70.90
2019-06-07T21:23:35.719Z,71.00
2019-06-07T21:26:06.916Z,71.10
2019-06-07T21:28:39.810Z,71.30
2019-06-07T21:31:10.374Z,71.50
2019-06-07T21:33:40.868Z,71.60
2019-06-07T21:36:11.837Z,71.60
2019-06-07T21:38:42.053Z,71.60
2019-06-07T21:41:12.576Z,71.60
2019-06-07T21:43:43.169Z,71.60
2019-06-07T21:46:20.323Z,71.70
2019-06-07T21:48:44.868Z,72.20
2019-06-07T21:51:14.961Z,72.50
2019-06-07T21:53:49.217Z,72.90
2019-06-07T21:56:20.869Z,73.10
2019-06-07T21:58:50.609Z,73.00
2019-06-07T22:01:23.322Z,72.80
2019-06-07T22:03:53.076Z,72.90
2019-06-07T22:06:25.253Z,73.00
2019-06-07T22:08:55.366Z,73.40
2019-06-07T22:11:25.875Z,73.60
2019-06-07T22:13:55.914Z,73.70
2019-06-07T22:16:29.217Z,73.80
2019-06-07T22:18:57.083Z,74.20
2019-06-07T22:21:27.155Z,74.30
2019-06-07T22:23:57.268Z,74.30
2019-06-07T22:26:26.927Z,74.70
2019-06-07T22:28:57.078Z,74.50
2019-06-07T22:31:30.862Z,74.60
2019-06-07T22:37:34.902Z,75.10
2019-06-07T22:40:08.564Z,75.70
2019-06-07T22:42:39.220Z,76.00
2019-06-07T22:45:10.872Z,76.30
2019-06-07T22:47:43.619Z,76.50
2019-06-07T22:53:28.758Z,79.10
2019-06-07T22:56:00.134Z,80.10
2019-06-07T22:58:31.724Z,80.80
2019-06-07T23:01:01.657Z,80.50
2019-06-07T23:03:31.476Z,80.30
2019-06-07T23:06:01.903Z,80.90
2019-06-07T23:08:32.085Z,81.20
2019-06-07T23:11:03.541Z,82.10
2019-06-07T23:13:33.402Z,82.30
2019-06-07T23:16:03.590Z,82.70
2019-06-07T23:18:33.663Z,83.10
2019-06-07T23:21:04.091Z,83.60
2019-06-07T23:23:34.147Z,84.10
2019-06-07T23:26:04.228Z,84.50
2019-06-07T23:28:34.276Z,84.70
2019-06-07T23:31:04.393Z,84.90
2019-06-07T23:33:35.894Z,85.00
2019-06-07T23:36:05.631Z,85.20
2019-06-07T23:38:35.588Z,85.50
2019-06-07T23:41:06.190Z,85.80
2019-06-07T23:43:36.203Z,86.00
2019-06-07T23:46:06.478Z,86.30
2019-06-07T23:48:36.549Z,86.50
2019-06-07T23:51:06.623Z,86.80
2019-06-07T23:53:37.840Z,87.00
2019-06-07T23:56:07.576Z,87.20
2019-06-07T23:58:37.376Z,87.60
